Terminal Aerodrome Forecast
Issued by NWS

Home | Current Version | Previous Version | Graphics & Text | Print | Product List | Glossary Off
Versions: 1 2 3 4 5 6 7 8 9 10 11 12 13 14 15 16 17 18 19 20 21 22 23 24 25 26 27 28 29 30 31 32 33 34 35

251
FTUS43 KGRB 140520
TAFRHI
TAF
KRHI 140520Z 1406/1506 00000KT P6SM SCT250
     FM141000 15003KT P6SM BKN250
     FM141500 15008KT P6SM FEW035 BKN100
     FM142200 16011KT P6SM -SN BKN035 OVC060
     FM150200 15008KT 3SM -SN BKN016 OVC025=

USA.gov is the U.S. government's official web portal to all federal, state and local government web resources and services.